Time;durP1;ratioP1;P1;durP2;ratioP2;P2;SDS_P1;SDS_P2;PMS_P1;PMS_P2;Temp;Humidity;BMP_temperature;BMP_pressure;BME280_temperature;BME280_humidity;BME280_pressure;Samples;Min_cycle;Max_cycle;Signal;HPM_P1;HPM_P2
2024/04/04 00:00:28;;;;;;;7.60;1.73;;;21.60;76.60;;;;;;5073327;28;20191;-73
2024/04/04 00:02:56;;;;;;;11.30;1.73;;;21.50;77.70;;;;;;5073531;28;20304;-74
2024/04/04 00:05:23;;;;;;;7.23;1.83;;;21.30;77.80;;;;;;5090082;28;20209;-70
2024/04/04 00:07:51;;;;;;;6.77;1.80;;;21.20;79.30;;;;;;5073976;28;20187;-69
2024/04/04 00:10:18;;;;;;;5.47;1.83;;;20.60;79.40;;;;;;5073376;28;20180;-70
2024/04/04 00:12:46;;;;;;;10.57;2.17;;;20.50;81.30;;;;;;5079348;28;20187;-69
2024/04/04 00:15:14;;;;;;;6.03;2.00;;;20.60;82.70;;;;;;5077910;28;20175;-69
2024/04/04 00:17:43;;;;;;;9.73;3.67;;;20.60;83.70;;;;;;5076282;28;20193;-72
2024/04/04 00:20:14;;;;;;;9.40;5.70;;;20.40;84.00;;;;;;5072434;28;20226;-70
2024/04/04 00:22:43;;;;;;;15.83;9.57;;;20.40;84.40;;;;;;5078297;28;20198;-71
2024/04/04 00:25:11;;;;;;;15.33;13.17;;;20.20;85.50;;;;;;5071055;28;20637;-72
2024/04/04 00:27:39;;;;;;;18.50;16.60;;;20.20;86.20;;;;;;5074584;28;20190;-71
2024/04/04 00:30:08;;;;;;;26.57;24.60;;;20.20;87.10;;;;;;5074843;28;20183;-72
2024/04/04 00:32:35;;;;;;;29.43;27.30;;;20.30;87.80;;;;;;5065307;28;20191;-71
2024/04/04 00:35:07;;;;;;;30.83;28.70;;;20.20;87.30;;;;;;5077321;28;20793;-72
2024/04/04 00:37:35;;;;;;;33.23;30.87;;;20.00;87.60;;;;;;5073643;28;20235;-71
2024/04/04 00:40:03;;;;;;;33.43;30.97;;;19.80;86.50;;;;;;5050428;28;20385;-71
2024/04/04 00:42:31;;;;;;;37.13;35.03;;;19.70;86.80;;;;;;5074302;28;20197;-71
2024/04/04 00:45:00;;;;;;;42.07;39.53;;;19.60;87.30;;;;;;5074567;28;20303;-72
2024/04/04 00:47:31;;;;;;;47.03;44.33;;;19.60;87.50;;;;;;5077395;28;20213;-71
2024/04/04 00:49:59;;;;;;;51.53;48.33;;;19.60;88.00;;;;;;5074107;28;20289;-70
2024/04/04 00:52:32;;;;;;;51.80;48.73;;;19.50;88.10;;;;;;5075905;28;20187;-70
2024/04/04 00:55:01;;;;;;;55.53;52.13;;;19.30;88.00;;;;;;5074400;28;20744;-71
2024/04/04 00:57:31;;;;;;;54.20;50.83;;;19.20;87.80;;;;;;5075393;28;20186;-74
2024/04/04 01:00:00;;;;;;;52.67;49.43;;;19.20;88.40;;;;;;5071138;28;20226;-70
2024/04/04 01:02:27;;;;;;;50.83;47.87;;;19.20;88.10;;;;;;5075963;28;20720;-70
2024/04/04 01:04:55;;;;;;;48.60;45.80;;;19.00;87.30;;;;;;5070495;28;20199;-69
2024/04/04 01:07:24;;;;;;;54.70;51.10;;;19.00;87.00;;;;;;5073987;28;20587;-69
2024/04/04 01:09:51;;;;;;;56.50;53.00;;;19.10;87.40;;;;;;5072998;28;20215;-70
2024/04/04 01:12:19;;;;;;;53.90;50.73;;;19.20;87.10;;;;;;5076356;28;20288;-70
2024/04/04 01:14:47;;;;;;;64.43;60.30;;;19.20;87.50;;;;;;5071946;28;20664;-70
2024/04/04 01:17:15;;;;;;;63.47;59.77;;;19.30;87.60;;;;;;5078421;28;20191;-72
2024/04/04 01:19:43;;;;;;;68.13;63.77;;;19.40;88.30;;;;;;5072129;28;20226;-72
2024/04/04 01:22:12;;;;;;;74.23;69.03;;;19.40;88.50;;;;;;5074111;28;20183;-70
2024/04/04 01:24:41;;;;;;;85.67;80.53;;;19.50;88.60;;;;;;5072151;28;20187;-70
2024/04/04 01:27:09;;;;;;;91.50;85.57;;;19.50;89.10;;;;;;5062915;28;20296;-69
2024/04/04 01:29:37;;;;;;;97.17;91.63;;;19.50;89.50;;;;;;5074196;28;20695;-70
2024/04/04 01:32:05;;;;;;;104.60;98.70;;;19.60;90.00;;;;;;5076141;28;20223;-72
2024/04/04 01:34:34;;;;;;;114.87;108.63;;;19.60;90.10;;;;;;5073000;28;20240;-69
2024/04/04 01:37:06;;;;;;;113.43;106.87;;;19.60;90.50;;;;;;5073573;28;20183;-69
2024/04/04 01:39:35;;;;;;;118.27;111.77;;;19.60;90.50;;;;;;5071639;28;20234;-69
2024/04/04 01:42:03;;;;;;;123.87;116.33;;;19.60;90.60;;;;;;5058265;28;20187;-69
2024/04/04 01:44:32;;;;;;;128.63;121.80;;;19.60;90.80;;;;;;5072805;28;20191;-69
2024/04/04 01:47:00;;;;;;;126.90;120.23;;;19.70;90.80;;;;;;5069861;28;20183;-67
2024/04/04 01:49:28;;;;;;;134.17;127.03;;;19.80;90.90;;;;;;5071883;28;20191;-69
2024/04/04 01:51:56;;;;;;;126.50;119.13;;;19.90;91.20;;;;;;5057812;28;20690;-67
2024/04/04 01:54:28;;;;;;;133.40;125.43;;;19.90;91.10;;;;;;5072867;28;20190;-69
2024/04/04 01:56:56;;;;;;;138.20;130.30;;;20.00;91.10;;;;;;5075576;28;20186;-72
2024/04/04 01:59:24;;;;;;;133.93;126.50;;;20.00;91.10;;;;;;5079711;28;20545;-69
2024/04/04 02:01:51;;;;;;;134.13;126.53;;;20.10;91.20;;;;;;5070438;28;20271;-68
2024/04/04 02:04:19;;;;;;;137.07;129.50;;;20.10;91.10;;;;;;5070766;28;20179;-70
2024/04/04 02:06:47;;;;;;;153.97;145.43;;;19.90;90.80;;;;;;5078638;28;20201;-69
2024/04/04 02:09:15;;;;;;;158.13;149.73;;;19.70;90.70;;;;;;5072279;28;20183;-68
2024/04/04 02:11:43;;;;;;;152.07;143.27;;;19.60;91.00;;;;;;5073291;28;20190;-72
2024/04/04 02:14:12;;;;;;;161.30;152.27;;;19.60;91.10;;;;;;5072933;28;20191;-70
2024/04/04 02:16:42;;;;;;;165.73;156.90;;;19.50;91.00;;;;;;5075384;28;20202;-76
2024/04/04 02:19:12;;;;;;;167.57;158.70;;;19.50;91.40;;;;;;5072932;28;20215;-69
2024/04/04 02:21:40;;;;;;;162.33;153.53;;;19.40;91.30;;;;;;5078856;28;20194;-68
2024/04/04 02:24:07;;;;;;;176.83;167.37;;;19.40;91.50;;;;;;5075574;28;20688;-69
2024/04/04 02:26:36;;;;;;;166.47;157.53;;;19.40;91.30;;;;;;5075867;28;20183;-69
2024/04/04 02:29:04;;;;;;;174.10;164.77;;;19.40;91.40;;;;;;5069703;28;20661;-69
2024/04/04 02:31:32;;;;;;;175.10;166.03;;;19.50;91.50;;;;;;5075672;28;20269;-69
2024/04/04 02:34:00;;;;;;;191.47;181.27;;;19.50;91.70;;;;;;5073661;28;20190;-69
2024/04/04 02:36:29;;;;;;;192.03;182.40;;;19.50;91.70;;;;;;5074460;28;20194;-71
2024/04/04 02:38:58;;;;;;;181.40;172.00;;;19.40;91.40;;;;;;5078746;28;20344;-71
2024/04/04 02:41:26;;;;;;;178.77;169.37;;;19.30;91.30;;;;;;5073379;28;20182;-69
2024/04/04 02:43:55;;;;;;;171.17;161.77;;;19.40;91.20;;;;;;5061045;28;20195;-70
2024/04/04 02:46:24;;;;;;;180.13;170.53;;;19.30;90.90;;;;;;5078350;28;20198;-72
2024/04/04 02:48:51;;;;;;;159.30;150.80;;;19.30;91.00;;;;;;5073823;28;20187;-70
2024/04/04 02:51:19;;;;;;;174.57;165.63;;;19.20;90.10;;;;;;5075791;28;20190;-73
2024/04/04 02:53:47;;;;;;;177.40;168.23;;;19.30;90.60;;;;;;5075190;28;20183;-69
2024/04/04 02:56:14;;;;;;;177.57;168.53;;;19.30;90.20;;;;;;5072299;28;20198;-70
2024/04/04 02:58:43;;;;;;;159.80;151.70;;;19.40;90.30;;;;;;5076208;28;20696;-71
2024/04/04 03:01:10;;;;;;;146.53;138.80;;;19.50;89.90;;;;;;5075991;28;20191;-70
2024/04/04 03:03:38;;;;;;;140.17;132.73;;;19.40;89.20;;;;;;5073211;28;20186;-72
2024/04/04 03:06:06;;;;;;;120.33;114.00;;;19.30;88.80;;;;;;5071798;28;20556;-71
2024/04/04 03:08:33;;;;;;;136.43;129.43;;;19.30;88.50;;;;;;5072655;28;20189;-70
2024/04/04 03:11:00;;;;;;;127.60;120.93;;;19.50;88.60;;;;;;5072281;28;20708;-71
2024/04/04 03:13:27;;;;;;;103.60;97.90;;;19.50;88.00;;;;;;5076456;28;20238;-71
2024/04/04 03:15:56;;;;;;;97.03;91.33;;;19.40;86.90;;;;;;5073527;28;20183;-71
2024/04/04 03:18:24;;;;;;;89.23;84.20;;;19.40;86.90;;;;;;5074717;28;20207;-70
2024/04/04 03:20:52;;;;;;;75.50;71.43;;;19.30;86.20;;;;;;5072874;28;20229;-70
2024/04/04 03:23:19;;;;;;;82.70;78.23;;;19.20;85.70;;;;;;5071030;28;20178;-69
2024/04/04 03:25:46;;;;;;;79.07;74.73;;;19.30;86.10;;;;;;5074364;28;20191;-71
2024/04/04 03:28:14;;;;;;;72.73;68.67;;;19.30;85.90;;;;;;5074517;28;20641;-72
2024/04/04 03:30:41;;;;;;;76.10;71.97;;;19.30;85.80;;;;;;5072817;28;20190;-72
2024/04/04 03:33:08;;;;;;;83.23;78.37;;;19.30;86.10;;;;;;5076547;28;20170;-72
2024/04/04 03:35:39;;;;;;;76.97;72.53;;;19.30;86.30;;;;;;5077159;28;20548;-76
2024/04/04 03:38:06;;;;;;;91.10;86.40;;;19.30;85.60;;;;;;5072940;28;20531;-71
2024/04/04 03:40:37;;;;;;;92.07;86.30;;;19.10;86.50;;;;;;5074067;28;20214;-70
2024/04/04 03:43:06;;;;;;;104.53;98.87;;;19.20;87.20;;;;;;5075327;28;20187;-69
2024/04/04 03:45:39;;;;;;;119.20;112.77;;;19.10;87.60;;;;;;5056446;28;20230;-69
2024/04/04 03:48:07;;;;;;;121.60;115.40;;;19.20;88.80;;;;;;5072409;28;20689;-69
2024/04/04 03:50:34;;;;;;;124.40;117.70;;;19.20;88.60;;;;;;5071691;28;20645;-69
2024/04/04 03:53:02;;;;;;;125.60;118.80;;;19.20;88.80;;;;;;5074615;28;20219;-69
2024/04/04 03:55:29;;;;;;;120.93;114.67;;;19.30;89.00;;;;;;5076932;28;20182;-70
2024/04/04 03:57:57;;;;;;;124.00;117.17;;;19.30;88.90;;;;;;5075711;28;20214;-70
2024/04/04 04:00:24;;;;;;;129.90;123.30;;;19.30;89.10;;;;;;5061712;28;20700;-72
2024/04/04 04:02:52;;;;;;;139.43;131.73;;;19.20;88.90;;;;;;5072280;28;20179;-70
2024/04/04 04:05:19;;;;;;;145.33;137.83;;;19.20;89.20;;;;;;5063952;28;20240;-69
2024/04/04 04:07:47;;;;;;;146.47;138.87;;;19.10;89.30;;;;;;5072034;28;20179;-71
2024/04/04 04:10:14;;;;;;;161.13;152.73;;;19.00;89.50;;;;;;5070519;28;20179;-71
2024/04/04 04:12:41;;;;;;;157.90;149.93;;;19.00;89.90;;;;;;5073041;28;20194;-69
2024/04/04 04:15:10;;;;;;;167.87;159.27;;;19.00;90.00;;;;;;5074410;28;20275;-73
2024/04/04 04:17:37;;;;;;;180.90;171.63;;;19.00;90.40;;;;;;5072784;28;20180;-70
2024/04/04 04:21:17;;;;;;;202.27;192.17;;;19.20;90.60;;;;;;5072596;28;20375;-69
2024/04/04 04:22:52;;;;;;;204.40;194.13;;;19.20;90.70;;;;;;5073576;28;20286;-71
2024/04/04 04:25:19;;;;;;;199.33;189.37;;;19.20;91.10;;;;;;5071363;28;20187;-70
2024/04/04 04:27:47;;;;;;;213.03;202.33;;;19.20;91.00;;;;;;5075442;28;20183;-68
2024/04/04 04:30:14;;;;;;;209.83;199.50;;;19.30;91.30;;;;;;5079405;28;20214;-69
2024/04/04 04:32:41;;;;;;;210.07;199.43;;;19.30;91.50;;;;;;5079332;28;20222;-69
2024/04/04 04:35:09;;;;;;;201.00;190.57;;;19.40;91.50;;;;;;5075205;28;20179;-69
2024/04/04 04:37:36;;;;;;;221.57;210.57;;;19.50;91.50;;;;;;5075304;28;20273;-69
2024/04/04 04:40:05;;;;;;;228.27;217.13;;;19.50;91.60;;;;;;5073636;28;20254;-69
2024/04/04 04:42:32;;;;;;;217.17;206.23;;;19.60;91.60;;;;;;5078800;28;20693;-69
2024/04/04 04:44:59;;;;;;;210.30;199.50;;;19.60;91.50;;;;;;5080198;28;20193;-69
2024/04/04 04:47:26;;;;;;;214.00;203.40;;;19.50;91.30;;;;;;5074947;28;20186;-68
2024/04/04 04:49:54;;;;;;;207.00;196.67;;;19.60;91.50;;;;;;5074986;28;20198;-70
2024/04/04 04:52:21;;;;;;;220.50;209.20;;;19.60;91.40;;;;;;5074016;28;20191;-73
2024/04/04 04:54:48;;;;;;;220.70;209.73;;;19.60;91.30;;;;;;5074058;28;20783;-74
2024/04/04 04:57:18;;;;;;;223.03;212.30;;;19.60;91.10;;;;;;5075264;28;20183;-72
2024/04/04 04:59:45;;;;;;;214.53;203.87;;;19.50;91.00;;;;;;5078010;28;20238;-69
2024/04/04 05:02:16;;;;;;;200.53;190.60;;;19.60;91.20;;;;;;5082564;28;20636;-72
2024/04/04 05:04:43;;;;;;;223.77;212.47;;;19.60;90.90;;;;;;5077140;28;20183;-72
2024/04/04 05:07:11;;;;;;;208.70;198.47;;;19.60;91.00;;;;;;5077691;28;20180;-69
2024/04/04 05:09:38;;;;;;;222.13;211.37;;;19.70;91.00;;;;;;5076159;28;20274;-70
2024/04/04 05:12:06;;;;;;;221.17;210.40;;;19.80;91.10;;;;;;5075749;28;20183;-69
2024/04/04 05:14:33;;;;;;;226.77;215.20;;;19.80;90.60;;;;;;5075584;28;20179;-72
2024/04/04 05:17:01;;;;;;;221.40;210.13;;;19.70;90.60;;;;;;5075221;28;20226;-69
2024/04/04 05:19:28;;;;;;;213.60;202.97;;;19.70;90.70;;;;;;5076768;28;20773;-69
2024/04/04 05:21:56;;;;;;;239.63;227.87;;;19.80;90.70;;;;;;5066917;28;20518;-68
2024/04/04 05:24:23;;;;;;;257.23;244.77;;;19.70;90.60;;;;;;5075354;28;20179;-70
2024/04/04 05:26:50;;;;;;;253.90;241.30;;;19.70;90.80;;;;;;5074590;28;20326;-69
2024/04/04 05:29:17;;;;;;;248.77;236.93;;;19.70;91.00;;;;;;5076568;28;20203;-72
2024/04/04 05:31:45;;;;;;;255.83;243.57;;;19.60;91.10;;;;;;5069080;28;20191;-70
2024/04/04 05:34:12;;;;;;;238.43;226.93;;;19.60;91.10;;;;;;5074463;28;20191;-70
2024/04/04 05:36:39;;;;;;;229.33;217.80;;;19.60;91.30;;;;;;5073368;28;20194;-72
2024/04/04 05:39:08;;;;;;;236.37;225.10;;;19.60;91.20;;;;;;5074973;28;20227;-73
2024/04/04 05:41:35;;;;;;;243.87;231.77;;;19.60;91.20;;;;;;5081567;28;20202;-69
2024/04/04 05:44:03;;;;;;;245.43;233.80;;;19.60;91.30;;;;;;5072698;28;20593;-71
2024/04/04 05:46:30;;;;;;;247.77;235.80;;;19.70;91.40;;;;;;5072238;28;20187;-69
2024/04/04 05:48:58;;;;;;;259.33;246.80;;;19.70;91.50;;;;;;5068244;28;20198;-71
2024/04/04 05:51:25;;;;;;;227.23;216.23;;;19.70;91.40;;;;;;5092855;28;20214;-69
2024/04/04 05:53:53;;;;;;;243.13;231.53;;;19.70;91.40;;;;;;5077803;28;20198;-69
2024/04/04 05:56:20;;;;;;;231.70;220.70;;;19.60;90.60;;;;;;5073292;28;20194;-69
2024/04/04 05:58:47;;;;;;;224.37;213.67;;;19.50;90.80;;;;;;5078956;28;20236;-70
2024/04/04 06:01:14;;;;;;;217.17;206.87;;;19.50;91.00;;;;;;5072527;28;20191;-70
2024/04/04 06:03:43;;;;;;;226.77;215.93;;;19.60;91.10;;;;;;5075542;28;20200;-69
2024/04/04 06:06:11;;;;;;;250.67;238.77;;;19.60;91.00;;;;;;5070274;28;20201;-69
2024/04/04 06:08:39;;;;;;;256.20;244.13;;;19.70;90.90;;;;;;5073502;28;20194;-70
2024/04/04 06:11:07;;;;;;;247.40;235.53;;;19.70;91.00;;;;;;5069320;28;20192;-69
2024/04/04 06:13:34;;;;;;;245.83;234.30;;;19.70;90.90;;;;;;5080972;28;20179;-72
2024/04/04 06:16:03;;;;;;;242.77;231.30;;;19.70;90.90;;;;;;5072452;28;20273;-68
2024/04/04 06:18:30;;;;;;;234.60;223.33;;;19.70;90.80;;;;;;5079048;28;20231;-69
2024/04/04 06:20:57;;;;;;;240.10;228.47;;;19.70;90.90;;;;;;5070642;28;20266;-68
2024/04/04 06:23:27;;;;;;;243.57;232.03;;;19.70;90.80;;;;;;5078897;28;20664;-69
2024/04/04 06:25:54;;;;;;;238.33;226.83;;;19.70;90.70;;;;;;5070190;28;20245;-70
2024/04/04 06:28:21;;;;;;;233.93;222.40;;;19.70;90.70;;;;;;5073760;28;20190;-71
2024/04/04 06:30:49;;;;;;;223.03;212.27;;;19.60;90.50;;;;;;5071219;28;20191;-69
2024/04/04 06:33:16;;;;;;;230.77;219.77;;;19.60;90.50;;;;;;5075755;28;20237;-70
2024/04/04 06:35:43;;;;;;;234.13;222.77;;;19.60;90.50;;;;;;5075134;28;20203;-71
2024/04/04 06:38:10;;;;;;;233.17;221.97;;;19.60;90.50;;;;;;5080412;28;20270;-71
2024/04/04 06:40:42;;;;;;;235.87;224.57;;;19.70;90.30;;;;;;5076138;28;20191;-71
2024/04/04 06:43:09;;;;;;;236.17;224.57;;;19.60;90.20;;;;;;5075329;28;20233;-72
2024/04/04 06:45:36;;;;;;;255.23;243.00;;;19.60;90.10;;;;;;5076612;28;20183;-70
2024/04/04 06:48:04;;;;;;;258.53;246.23;;;19.60;90.10;;;;;;5074297;28;20665;-70
2024/04/04 06:50:31;;;;;;;238.20;226.50;;;19.60;90.00;;;;;;5068207;28;20175;-68
2024/04/04 06:52:58;;;;;;;241.57;229.77;;;19.50;89.90;;;;;;5070702;28;20511;-70
2024/04/04 06:55:26;;;;;;;233.27;221.70;;;19.50;90.10;;;;;;5054620;28;20262;-70
2024/04/04 06:57:53;;;;;;;248.10;235.70;;;19.60;90.10;;;;;;5078185;28;20229;-71
2024/04/04 07:00:20;;;;;;;239.33;227.83;;;19.50;90.00;;;;;;5075827;28;20584;-69
2024/04/04 07:02:47;;;;;;;238.23;226.30;;;19.50;89.90;;;;;;5081325;28;20182;-71
2024/04/04 07:05:15;;;;;;;231.17;219.80;;;19.60;89.90;;;;;;5073156;28;20202;-72
2024/04/04 07:07:42;;;;;;;243.37;231.83;;;19.60;89.90;;;;;;5079631;28;20655;-71
2024/04/04 07:10:09;;;;;;;245.73;233.93;;;19.60;89.90;;;;;;5076144;28;20571;-69
2024/04/04 07:12:36;;;;;;;234.87;223.37;;;19.60;90.00;;;;;;5071207;28;20187;-71
2024/04/04 07:15:04;;;;;;;240.10;228.10;;;19.60;90.00;;;;;;5075981;28;20183;-71
2024/04/04 07:17:31;;;;;;;245.10;233.47;;;19.60;90.10;;;;;;5078369;28;20713;-72
2024/04/04 07:19:59;;;;;;;231.47;220.23;;;19.60;90.20;;;;;;5073798;28;20300;-71
2024/04/04 07:22:26;;;;;;;241.60;229.73;;;19.60;90.10;;;;;;5074360;28;20289;-71
2024/04/04 07:24:54;;;;;;;260.93;248.37;;;19.60;90.20;;;;;;5078631;28;20240;-71
2024/04/04 07:27:21;;;;;;;262.13;249.90;;;19.70;90.20;;;;;;5074202;28;20179;-73
2024/04/04 07:29:49;;;;;;;259.30;246.70;;;19.60;90.20;;;;;;5072242;28;20195;-73
2024/04/04 07:32:17;;;;;;;258.60;246.33;;;19.60;90.20;;;;;;5072776;28;20190;-72
2024/04/04 07:34:45;;;;;;;268.70;255.73;;;19.60;90.40;;;;;;5078198;28;20210;-73
2024/04/04 07:37:12;;;;;;;275.57;262.27;;;19.60;90.40;;;;;;5078140;28;20175;-73
2024/04/04 07:39:40;;;;;;;271.30;258.27;;;19.50;90.40;;;;;;5072988;28;20299;-73
2024/04/04 07:42:07;;;;;;;274.50;261.43;;;19.50;90.40;;;;;;5078902;28;20178;-72
2024/04/04 07:44:36;;;;;;;287.37;273.57;;;19.50;90.60;;;;;;5075432;28;20197;-68
2024/04/04 07:47:03;;;;;;;280.10;266.63;;;19.50;90.70;;;;;;5078882;28;20621;-69
2024/04/04 07:49:30;;;;;;;282.40;268.83;;;19.40;90.70;;;;;;5078311;28;20186;-70
2024/04/04 07:51:58;;;;;;;284.20;270.57;;;19.40;90.90;;;;;;5070976;28;20273;-71
2024/04/04 07:54:29;;;;;;;281.83;268.40;;;19.50;91.00;;;;;;5077189;28;20183;-71
2024/04/04 07:56:57;;;;;;;292.60;278.47;;;19.40;91.00;;;;;;5076053;28;20183;-71
2024/04/04 07:59:24;;;;;;;287.50;273.80;;;19.40;91.00;;;;;;5077074;28;20669;-71
2024/04/04 08:01:52;;;;;;;289.70;275.90;;;19.40;91.20;;;;;;5070828;28;20258;-69
2024/04/04 08:04:19;;;;;;;290.47;276.77;;;19.30;91.20;;;;;;5076512;28;20262;-69
2024/04/04 08:06:47;;;;;;;305.83;291.60;;;19.40;91.20;;;;;;5077563;28;20190;-69
2024/04/04 08:09:15;;;;;;;305.77;291.23;;;19.40;91.20;;;;;;5082044;28;20179;-70
2024/04/04 08:11:42;;;;;;;318.90;303.83;;;19.40;91.30;;;;;;5081692;28;20194;-71
2024/04/04 08:14:12;;;;;;;310.27;295.50;;;19.30;91.20;;;;;;5078052;28;20179;-71
2024/04/04 08:16:40;;;;;;;314.70;299.83;;;19.40;91.30;;;;;;5078055;28;20638;-72
2024/04/04 08:19:08;;;;;;;309.60;294.80;;;19.40;91.30;;;;;;5060173;28;20242;-73
2024/04/04 08:21:35;;;;;;;313.80;298.93;;;19.30;91.50;;;;;;5057286;28;20661;-72
2024/04/04 08:24:03;;;;;;;308.10;293.47;;;19.40;91.40;;;;;;5083508;28;20179;-72
2024/04/04 08:26:30;;;;;;;298.67;284.83;;;19.30;91.30;;;;;;5075413;28;20289;-71
2024/04/04 08:28:58;;;;;;;308.33;293.63;;;19.20;91.30;;;;;;5077982;28;20269;-69
2024/04/04 08:31:26;;;;;;;310.57;295.60;;;19.30;91.40;;;;;;5079438;28;20179;-70
2024/04/04 08:33:54;;;;;;;321.67;305.93;;;19.30;91.40;;;;;;5073691;28;20545;-71
2024/04/04 08:36:21;;;;;;;322.90;307.43;;;19.30;91.50;;;;;;5079043;28;20701;-73
2024/04/04 08:38:49;;;;;;;325.13;309.63;;;19.30;91.50;;;;;;5086128;28;20237;-72
2024/04/04 08:41:19;;;;;;;306.13;291.13;;;19.30;91.50;;;;;;5077974;28;20207;-72
2024/04/04 08:43:47;;;;;;;317.83;302.93;;;19.30;91.50;;;;;;5085311;28;20179;-71
2024/04/04 08:46:14;;;;;;;315.60;300.23;;;19.30;91.50;;;;;;5078413;28;20197;-72
2024/04/04 08:48:42;;;;;;;319.57;303.83;;;19.40;91.50;;;;;;5049192;28;20187;-68
2024/04/04 08:51:11;;;;;;;319.37;304.03;;;19.40;91.50;;;;;;5080358;28;20199;-69
2024/04/04 08:53:39;;;;;;;334.90;318.37;;;19.40;91.70;;;;;;5080934;28;20184;-67
2024/04/04 08:56:07;;;;;;;326.87;310.83;;;19.40;91.50;;;;;;5078208;28;20183;-70
2024/04/04 08:58:37;;;;;;;343.00;326.23;;;19.30;91.50;;;;;;5074838;28;20187;-70
2024/04/04 09:01:04;;;;;;;321.97;306.43;;;19.40;91.60;;;;;;5072834;28;20536;-70
2024/04/04 09:03:32;;;;;;;344.87;328.20;;;19.30;91.50;;;;;;5074739;28;20187;-69
2024/04/04 09:06:01;;;;;;;350.83;333.83;;;19.40;91.70;;;;;;5077426;28;20186;-70
2024/04/04 09:08:32;;;;;;;333.90;318.03;;;19.30;91.60;;;;;;5080565;28;20181;-71
2024/04/04 09:11:03;;;;;;;350.37;333.83;;;19.40;91.60;;;;;;5075775;28;20224;-73
2024/04/04 09:13:30;;;;;;;342.07;325.50;;;19.40;91.70;;;;;;5083322;28;20215;-70
2024/04/04 09:16:02;;;;;;;359.93;342.77;;;19.40;91.70;;;;;;5082687;28;20208;-71
2024/04/04 09:18:30;;;;;;;335.93;319.53;;;19.50;91.60;;;;;;5079550;28;20195;-71
2024/04/04 09:21:00;;;;;;;359.37;341.73;;;19.40;91.60;;;;;;5075604;28;20194;-71
2024/04/04 09:23:31;;;;;;;352.60;335.93;;;19.50;91.70;;;;;;5077312;28;20176;-70
2024/04/04 09:25:59;;;;;;;365.90;348.53;;;19.50;91.60;;;;;;5079209;28;20183;-70
2024/04/04 09:28:29;;;;;;;380.13;361.80;;;19.50;91.60;;;;;;5075510;28;20583;-70
2024/04/04 09:31:01;;;;;;;386.10;366.97;;;19.50;91.80;;;;;;5078341;28;20179;-70
2024/04/04 09:33:30;;;;;;;402.03;382.53;;;19.60;92.00;;;;;;5075947;28;20563;-72
2024/04/04 09:35:59;;;;;;;403.63;384.70;;;19.50;91.90;;;;;;5084062;28;20183;-70
2024/04/04 09:38:27;;;;;;;416.93;397.17;;;19.50;92.00;;;;;;5081972;28;20298;-70
2024/04/04 09:40:58;;;;;;;424.97;404.13;;;19.50;92.20;;;;;;5082813;28;20247;-71
2024/04/04 09:43:26;;;;;;;436.20;415.70;;;19.40;92.20;;;;;;5076086;28;20199;-70
2024/04/04 09:45:54;;;;;;;442.40;421.17;;;19.30;92.20;;;;;;5082435;28;20189;-73
2024/04/04 09:48:22;;;;;;;447.87;426.33;;;19.20;92.50;;;;;;5081733;28;20183;-76
2024/04/04 09:50:50;;;;;;;452.67;431.10;;;19.20;92.70;;;;;;5072127;28;20516;-72
2024/04/04 09:53:18;;;;;;;479.43;455.67;;;19.20;92.80;;;;;;5077238;28;20186;-73
2024/04/04 09:55:46;;;;;;;486.13;462.40;;;19.20;93.10;;;;;;5085320;28;20214;-74
2024/04/04 09:58:14;;;;;;;478.57;455.33;;;19.20;93.20;;;;;;5073272;28;20179;-72
2024/04/04 10:00:42;;;;;;;496.60;472.03;;;19.20;93.40;;;;;;5083847;28;20332;-73
2024/04/04 10:03:15;;;;;;;496.57;471.77;;;19.10;93.40;;;;;;5077830;28;20172;-71
2024/04/04 10:05:44;;;;;;;505.47;480.70;;;19.10;93.60;;;;;;5078977;28;20187;-74
2024/04/04 10:08:13;;;;;;;513.03;487.53;;;19.10;93.70;;;;;;5073643;28;20171;-77
2024/04/04 10:10:45;;;;;;;517.30;491.53;;;19.00;93.80;;;;;;5077344;28;20707;-72
2024/04/04 10:13:13;;;;;;;517.13;491.47;;;19.00;93.90;;;;;;5073387;28;20305;-77
2024/04/04 10:15:50;;;;;;;530.47;503.90;;;19.00;93.90;;;;;;5079181;28;20190;-73
2024/04/04 10:18:20;;;;;;;528.27;501.90;;;19.00;94.00;;;;;;5077222;28;20198;-73
2024/04/04 10:20:59;;;;;;;537.03;509.30;;;19.00;94.10;;;;;;5081146;28;20190;-71
2024/04/04 10:23:27;;;;;;;548.67;520.03;;;19.00;94.20;;;;;;5074911;28;20210;-70
2024/04/04 10:26:09;;;;;;;546.60;518.13;;;19.00;94.20;;;;;;5074659;28;20271;-71
2024/04/04 10:28:37;;;;;;;564.00;534.67;;;19.00;94.30;;;;;;5073842;28;20183;-71
2024/04/04 10:31:04;;;;;;;559.50;530.37;;;18.90;94.40;;;;;;5076167;28;20948;-75
2024/04/04 10:33:32;;;;;;;560.30;530.80;;;18.90;94.40;;;;;;5075830;28;20557;-71
2024/04/04 10:36:01;;;;;;;568.47;538.60;;;18.90;94.50;;;;;;5079473;28;20214;-71
2024/04/04 10:38:28;;;;;;;591.93;561.30;;;18.90;94.50;;;;;;5075614;28;20271;-70
2024/04/04 10:40:58;;;;;;;597.53;566.00;;;18.90;94.60;;;;;;5079753;28;20641;-71
2024/04/04 10:43:26;;;;;;;602.37;570.33;;;18.80;94.60;;;;;;5075279;28;20239;-70
2024/04/04 10:45:54;;;;;;;596.80;564.73;;;18.80;94.70;;;;;;5081170;28;20632;-71
2024/04/04 10:48:21;;;;;;;594.93;562.33;;;18.90;94.70;;;;;;5070708;28;20184;-74
2024/04/04 10:50:49;;;;;;;599.23;566.90;;;18.90;94.80;;;;;;5071633;28;20543;-70
2024/04/04 10:53:16;;;;;;;617.40;583.93;;;18.90;94.80;;;;;;5074454;28;20175;-69
2024/04/04 10:55:44;;;;;;;610.77;576.97;;;18.90;94.80;;;;;;5073568;28;20643;-72
2024/04/04 10:58:12;;;;;;;618.70;584.57;;;19.00;94.90;;;;;;5072025;28;20175;-77
2024/04/04 11:00:40;;;;;;;600.70;566.77;;;19.00;94.90;;;;;;5075104;28;20222;-70
2024/04/04 11:03:10;;;;;;;611.17;577.53;;;19.00;94.90;;;;;;5073600;28;20186;-73
2024/04/04 11:05:38;;;;;;;609.33;575.33;;;19.00;94.90;;;;;;5076399;28;20200;-75
2024/04/04 11:08:06;;;;;;;619.20;583.83;;;19.00;95.00;;;;;;5075718;28;20633;-71
2024/04/04 11:10:34;;;;;;;633.57;597.43;;;19.10;94.90;;;;;;5075046;28;20377;-70
2024/04/04 11:13:02;;;;;;;624.47;589.53;;;19.10;94.90;;;;;;5074305;28;20257;-71
2024/04/04 11:15:31;;;;;;;626.77;591.60;;;19.00;94.90;;;;;;5074468;28;20262;-71
2024/04/04 11:17:59;;;;;;;632.67;596.83;;;19.00;94.80;;;;;;5076396;28;20175;-71
2024/04/04 11:20:27;;;;;;;632.57;597.20;;;19.00;94.90;;;;;;5073461;28;20619;-71
2024/04/04 11:22:55;;;;;;;634.40;598.93;;;19.00;94.90;;;;;;5076896;28;20267;-72
2024/04/04 11:25:22;;;;;;;642.53;605.80;;;19.00;94.90;;;;;;5080236;28;20265;-72
2024/04/04 11:27:50;;;;;;;638.43;601.97;;;19.00;94.80;;;;;;5070227;28;20193;-70
2024/04/04 11:30:17;;;;;;;652.23;615.33;;;19.00;94.80;;;;;;5073051;28;20187;-71
2024/04/04 11:32:45;;;;;;;639.67;603.13;;;19.00;94.90;;;;;;5079161;28;20179;-71
2024/04/04 11:35:13;;;;;;;653.47;615.93;;;19.00;94.90;;;;;;5077822;28;20198;-71
2024/04/04 11:37:40;;;;;;;616.70;579.77;;;19.00;94.90;;;;;;5076098;28;20644;-71
2024/04/04 11:40:09;;;;;;;618.27;581.37;;;19.00;94.90;;;;;;5072580;28;20293;-71
2024/04/04 11:42:37;;;;;;;620.33;583.30;;;19.00;94.90;;;;;;5070775;28;20393;-73
2024/04/04 11:45:05;;;;;;;631.73;593.47;;;19.00;94.90;;;;;;5075350;28;20576;-75
2024/04/04 11:47:32;;;;;;;634.13;596.67;;;19.00;94.90;;;;;;5086584;28;20193;-71
2024/04/04 11:50:06;;;;;;;629.07;591.60;;;19.00;94.90;;;;;;5078529;28;20250;-73
2024/04/04 11:52:34;;;;;;;638.50;600.10;;;19.00;94.80;;;;;;5078081;28;20669;-71
2024/04/04 11:55:01;;;;;;;640.53;602.63;;;19.00;94.90;;;;;;5075195;28;20197;-73
2024/04/04 11:57:28;;;;;;;645.13;606.90;;;18.90;94.80;;;;;;5076490;28;20179;-78
2024/04/04 11:59:56;;;;;;;641.73;603.63;;;19.00;94.80;;;;;;5073442;28;20238;-73
2024/04/04 12:02:23;;;;;;;632.70;595.07;;;18.90;94.80;;;;;;5075782;28;20183;-72
2024/04/04 12:04:51;;;;;;;632.43;593.83;;;18.90;94.80;;;;;;5059294;28;20224;-71
2024/04/04 12:07:18;;;;;;;633.47;594.80;;;18.90;94.80;;;;;;5074565;28;20240;-70
2024/04/04 12:09:45;;;;;;;627.63;588.73;;;18.90;94.80;;;;;;5067392;28;20206;-70
2024/04/04 12:12:14;;;;;;;629.83;591.43;;;18.90;94.80;;;;;;5077586;28;20187;-70
2024/04/04 12:14:44;;;;;;;631.87;593.60;;;18.90;94.70;;;;;;5080268;28;20193;-70